createdAt,value
2022-07-30T00:00:58.711Z,16.65
2022-07-30T00:01:58.666Z,16.57
2022-07-30T00:02:58.678Z,16.57
2022-07-30T00:03:58.745Z,16.51
2022-07-30T00:04:58.662Z,16.51
2022-07-30T00:06:58.961Z,16.43
2022-07-30T00:07:58.666Z,16.41
2022-07-30T00:08:58.661Z,16.35
2022-07-30T00:09:58.656Z,16.38
2022-07-30T00:10:58.657Z,16.46
2022-07-30T00:11:58.654Z,16.31
2022-07-30T00:12:58.655Z,16.31
2022-07-30T00:13:58.650Z,16.33
2022-07-30T00:14:58.654Z,16.32
2022-07-30T00:15:58.648Z,16.36
2022-07-30T00:16:59.049Z,16.20
2022-07-30T00:17:58.648Z,16.23
2022-07-30T00:18:58.646Z,16.17
2022-07-30T00:19:58.642Z,16.17
2022-07-30T00:20:58.645Z,16.24
2022-07-30T00:21:58.641Z,16.21
2022-07-30T00:22:58.638Z,16.21
2022-07-30T00:24:01.898Z,16.13
2022-07-30T00:24:58.640Z,16.10
2022-07-30T00:25:58.636Z,16.16
2022-07-30T00:26:58.954Z,16.17
2022-07-30T00:27:58.634Z,16.20
2022-07-30T00:28:58.644Z,16.23
2022-07-30T00:29:58.637Z,16.23
2022-07-30T00:31:58.634Z,16.21
2022-07-30T00:32:58.627Z,16.21
2022-07-30T00:33:59.074Z,16.21
2022-07-30T00:34:58.623Z,16.20
2022-07-30T00:35:58.620Z,16.16
2022-07-30T00:36:58.843Z,16.13
2022-07-30T00:37:58.620Z,16.05
2022-07-30T00:38:58.655Z,15.98
2022-07-30T00:39:58.616Z,15.91
2022-07-30T00:40:58.616Z,15.80
2022-07-30T00:41:58.613Z,15.82
2022-07-30T00:42:58.611Z,15.72
2022-07-30T00:43:58.608Z,15.72
2022-07-30T00:44:58.607Z,15.62
2022-07-30T00:45:58.619Z,15.59
2022-07-30T00:46:59.162Z,15.58
2022-07-30T00:47:58.604Z,15.54
2022-07-30T00:48:58.675Z,15.55
2022-07-30T00:49:58.601Z,15.51
2022-07-30T00:50:58.598Z,15.61
2022-07-30T00:51:58.597Z,15.49
2022-07-30T00:52:58.600Z,15.52
2022-07-30T00:53:58.595Z,15.47
2022-07-30T00:54:58.671Z,15.47
2022-07-30T00:55:58.592Z,15.51
2022-07-30T00:56:58.874Z,15.52
2022-07-30T00:57:58.586Z,15.51
2022-07-30T00:58:58.585Z,15.47
2022-07-30T00:59:58.584Z,15.44
2022-07-30T01:00:58.629Z,15.47
2022-07-30T01:01:58.636Z,15.54
2022-07-30T01:02:58.582Z,15.42
2022-07-30T01:03:58.578Z,15.49
2022-07-30T01:04:58.579Z,15.52
2022-07-30T01:05:58.578Z,15.43
2022-07-30T01:06:58.864Z,15.39
2022-07-30T01:07:58.574Z,15.35
2022-07-30T01:08:58.570Z,15.35
2022-07-30T01:09:58.601Z,15.36
2022-07-30T01:10:58.568Z,15.33
2022-07-30T01:11:58.564Z,15.36
2022-07-30T01:14:58.561Z,15.28
2022-07-30T01:15:58.557Z,15.31
2022-07-30T01:16:58.830Z,15.22
2022-07-30T01:17:58.555Z,15.29
2022-07-30T01:18:58.553Z,15.22
2022-07-30T01:19:58.551Z,15.15
2022-07-30T01:20:58.552Z,15.15
2022-07-30T01:21:58.548Z,15.17
2022-07-30T01:22:58.549Z,15.11
2022-07-30T01:23:58.547Z,15.15
2022-07-30T01:24:58.543Z,15.17
2022-07-30T01:25:58.541Z,15.14
2022-07-30T01:26:58.969Z,15.15
2022-07-30T01:27:58.537Z,15.17
2022-07-30T01:28:58.535Z,15.14
2022-07-30T01:29:58.532Z,15.07
2022-07-30T01:32:02.441Z,15.19
2022-07-30T01:32:58.528Z,15.14
2022-07-30T01:33:58.525Z,15.06
2022-07-30T01:34:58.522Z,15.10
2022-07-30T01:35:58.520Z,15.03
2022-07-30T01:36:58.920Z,15.03
2022-07-30T01:37:58.517Z,15.14
2022-07-30T01:38:58.517Z,15.09
2022-07-30T01:39:58.515Z,15.15
2022-07-30T01:40:58.514Z,15.11
2022-07-30T01:41:58.509Z,15.02
2022-07-30T01:42:58.532Z,14.92
2022-07-30T01:43:58.507Z,14.99
2022-07-30T01:44:58.505Z,14.86
2022-07-30T01:45:58.600Z,14.91
2022-07-30T01:46:58.658Z,14.94
2022-07-30T01:47:58.512Z,14.89
2022-07-30T01:48:58.525Z,14.86
2022-07-30T01:49:58.498Z,14.84
2022-07-30T01:50:58.499Z,14.92
2022-07-30T01:51:58.491Z,14.86
2022-07-30T01:52:58.493Z,14.89
2022-07-30T01:53:58.489Z,14.85
2022-07-30T01:54:58.487Z,14.86
2022-07-30T01:55:58.484Z,14.81
2022-07-30T01:56:58.788Z,14.81
2022-07-30T01:57:58.478Z,14.78
2022-07-30T01:58:58.478Z,14.70
2022-07-30T01:59:58.477Z,14.78
2022-07-30T02:00:58.563Z,14.68
2022-07-30T02:01:58.471Z,14.68
2022-07-30T02:02:58.470Z,14.70
2022-07-30T02:03:58.514Z,14.70
2022-07-30T02:04:58.469Z,14.68
2022-07-30T02:05:58.466Z,14.63
2022-07-30T02:06:58.669Z,14.72
2022-07-30T02:07:58.461Z,14.59
2022-07-30T02:08:58.461Z,14.62
2022-07-30T02:09:58.457Z,14.55
2022-07-30T02:10:58.457Z,14.59
2022-07-30T02:11:58.455Z,14.60
2022-07-30T02:12:58.451Z,14.72
2022-07-30T02:13:58.450Z,14.70
2022-07-30T02:14:58.446Z,14.69
2022-07-30T02:15:58.542Z,14.77
2022-07-30T02:16:58.815Z,14.77
2022-07-30T02:17:58.442Z,14.70
2022-07-30T02:18:58.764Z,14.72
2022-07-30T02:19:58.437Z,14.73
2022-07-30T02:20:58.447Z,14.72
2022-07-30T02:21:58.434Z,14.86
2022-07-30T02:22:58.431Z,14.81
2022-07-30T02:23:58.427Z,14.86
2022-07-30T02:24:58.426Z,14.81
2022-07-30T02:25:58.424Z,14.78
2022-07-30T02:26:58.723Z,14.79
2022-07-30T02:27:58.418Z,14.82
2022-07-30T02:28:58.419Z,14.72
2022-07-30T02:29:58.418Z,14.69
2022-07-30T02:30:58.414Z,14.69
2022-07-30T02:31:58.410Z,14.59
2022-07-30T02:32:58.413Z,14.60
2022-07-30T02:33:58.758Z,14.55
2022-07-30T02:34:58.405Z,14.65
2022-07-30T02:35:58.405Z,14.63
2022-07-30T02:36:58.610Z,14.59
2022-07-30T02:37:58.402Z,14.58
2022-07-30T02:38:58.396Z,14.50
2022-07-30T02:39:58.397Z,14.48
2022-07-30T02:40:58.392Z,14.51
2022-07-30T02:41:58.392Z,14.50
2022-07-30T02:42:58.390Z,14.45
2022-07-30T02:43:58.388Z,14.40
2022-07-30T02:44:58.386Z,14.35
2022-07-30T02:45:58.392Z,14.36
2022-07-30T02:46:58.761Z,14.22
2022-07-30T02:47:58.376Z,14.23
2022-07-30T02:48:58.427Z,14.25
2022-07-30T02:49:58.374Z,14.30
2022-07-30T02:50:58.376Z,14.26
2022-07-30T02:51:58.372Z,14.29
2022-07-30T02:52:58.368Z,14.35
2022-07-30T02:53:58.365Z,14.22
2022-07-30T02:54:58.361Z,14.36
2022-07-30T02:55:58.360Z,14.28
2022-07-30T02:56:58.739Z,14.33
2022-07-30T02:57:58.357Z,14.25
2022-07-30T02:58:58.356Z,14.37
2022-07-30T02:59:58.354Z,14.43
2022-07-30T03:00:58.396Z,14.47
2022-07-30T03:01:58.377Z,14.48
2022-07-30T03:02:58.347Z,14.51
2022-07-30T03:03:58.343Z,14.53
2022-07-30T03:04:58.342Z,14.48
2022-07-30T03:05:58.338Z,14.41
2022-07-30T03:06:58.641Z,14.43
2022-07-30T03:07:58.333Z,14.30
2022-07-30T03:08:58.333Z,14.33
2022-07-30T03:09:58.330Z,14.23
2022-07-30T03:10:58.327Z,14.22
2022-07-30T03:11:58.330Z,14.28
2022-07-30T03:12:58.329Z,14.25
2022-07-30T03:13:58.323Z,14.17
2022-07-30T03:14:58.321Z,14.25
2022-07-30T03:15:58.362Z,14.25
2022-07-30T03:16:58.711Z,14.18
2022-07-30T03:17:58.319Z,14.22
2022-07-30T03:18:58.309Z,14.28
2022-07-30T03:19:58.310Z,14.26
2022-07-30T03:20:58.310Z,14.29
2022-07-30T03:21:58.308Z,14.20
2022-07-30T03:22:58.309Z,14.23
2022-07-30T03:23:58.298Z,14.20
2022-07-30T03:24:58.294Z,14.30
2022-07-30T03:25:58.293Z,14.29
2022-07-30T03:26:58.787Z,14.29
2022-07-30T03:27:58.289Z,14.35
2022-07-30T03:28:58.289Z,14.35
2022-07-30T03:29:58.296Z,14.32
2022-07-30T03:30:58.780Z,14.33
2022-07-30T03:31:58.341Z,14.45
2022-07-30T03:32:58.277Z,14.40
2022-07-30T03:33:58.732Z,14.44
2022-07-30T03:35:00.974Z,14.44
2022-07-30T03:35:58.271Z,14.35
2022-07-30T03:36:58.654Z,14.30
2022-07-30T03:37:58.271Z,14.26
2022-07-30T03:38:58.266Z,14.15
2022-07-30T03:39:58.267Z,14.12
2022-07-30T03:40:58.258Z,14.08
2022-07-30T03:41:58.257Z,13.97
2022-07-30T03:42:58.255Z,13.99
2022-07-30T03:43:58.255Z,13.99
2022-07-30T03:44:58.250Z,13.99
2022-07-30T03:45:58.251Z,13.96
2022-07-30T03:46:58.659Z,13.96
2022-07-30T03:47:58.257Z,14.08
2022-07-30T03:48:58.286Z,14.04
2022-07-30T03:49:58.241Z,14.10
2022-07-30T03:50:58.234Z,14.14
2022-07-30T03:51:58.238Z,14.11
2022-07-30T03:52:58.241Z,14.10
2022-07-30T03:53:58.231Z,14.17
2022-07-30T03:54:58.225Z,14.12
2022-07-30T03:55:58.224Z,14.03
2022-07-30T03:56:58.647Z,14.05
2022-07-30T03:57:58.226Z,14.04
2022-07-30T03:58:58.217Z,14.03
2022-07-30T03:59:58.432Z,14.11
2022-07-30T04:00:58.250Z,14.12
2022-07-30T04:01:58.236Z,14.14
2022-07-30T04:02:58.208Z,14.10
2022-07-30T04:03:58.242Z,14.15
2022-07-30T04:04:58.206Z,14.15
2022-07-30T04:05:58.207Z,14.29
2022-07-30T04:06:58.435Z,14.32
2022-07-30T04:07:58.196Z,14.22
2022-07-30T04:08:58.195Z,14.23
2022-07-30T04:09:58.195Z,14.25
2022-07-30T04:10:58.192Z,14.25
2022-07-30T04:11:58.190Z,14.25
2022-07-30T04:12:58.187Z,14.23
2022-07-30T04:13:58.181Z,14.08
2022-07-30T04:14:58.177Z,14.10
2022-07-30T04:16:38.391Z,14.03
2022-07-30T04:16:58.666Z,14.05
2022-07-30T04:17:58.178Z,14.10
2022-07-30T04:18:58.169Z,13.97
2022-07-30T04:19:58.166Z,14.03
2022-07-30T04:20:58.166Z,14.11
2022-07-30T04:21:58.164Z,13.99
2022-07-30T04:22:58.162Z,14.12
2022-07-30T04:24:03.925Z,14.07
2022-07-30T04:24:58.156Z,14.10
2022-07-30T04:25:58.154Z,14.15
2022-07-30T04:26:58.493Z,14.11
2022-07-30T04:28:03.340Z,14.18
2022-07-30T04:28:58.144Z,14.11
2022-07-30T04:29:58.143Z,14.17
2022-07-30T04:30:58.200Z,14.20
2022-07-30T04:31:58.141Z,14.15
2022-07-30T04:32:58.134Z,14.28
2022-07-30T04:34:01.093Z,14.20
2022-07-30T04:34:58.129Z,14.35
2022-07-30T04:35:58.134Z,14.32
2022-07-30T04:36:58.410Z,14.40
2022-07-30T04:37:58.133Z,14.37
2022-07-30T04:38:58.134Z,14.47
2022-07-30T04:39:58.117Z,14.44
2022-07-30T04:40:58.132Z,14.54
2022-07-30T04:41:58.121Z,14.44
2022-07-30T04:42:58.111Z,14.44
2022-07-30T04:43:58.113Z,14.53
2022-07-30T04:44:58.109Z,14.53
2022-07-30T04:45:58.107Z,14.50
2022-07-30T04:46:58.415Z,14.63
2022-07-30T04:47:58.131Z,14.60
2022-07-30T04:48:58.176Z,14.59
2022-07-30T04:49:58.095Z,14.70
2022-07-30T04:50:58.092Z,14.72
2022-07-30T04:51:58.088Z,14.70
2022-07-30T04:52:58.100Z,14.86
2022-07-30T04:53:58.086Z,14.86
2022-07-30T04:54:58.082Z,14.89
2022-07-30T04:55:58.081Z,14.96
2022-07-30T04:56:58.079Z,15.00
2022-07-30T04:57:58.077Z,15.00
2022-07-30T04:58:58.078Z,14.99
2022-07-30T04:59:58.072Z,15.00
2022-07-30T05:00:58.071Z,15.06
2022-07-30T05:01:58.113Z,15.03
2022-07-30T05:02:58.068Z,15.06
2022-07-30T05:03:58.062Z,15.09
2022-07-30T05:04:58.100Z,15.11
2022-07-30T05:05:58.058Z,15.17
2022-07-30T05:06:58.765Z,15.14
2022-07-30T05:07:58.130Z,15.10
2022-07-30T05:08:58.052Z,15.19
2022-07-30T05:09:58.048Z,15.25
2022-07-30T05:10:58.052Z,15.27
2022-07-30T05:11:58.042Z,15.27
2022-07-30T05:12:58.062Z,15.24
2022-07-30T05:13:58.039Z,15.36
2022-07-30T05:14:58.036Z,15.40
2022-07-30T05:15:58.088Z,15.33
2022-07-30T05:16:58.352Z,15.36
2022-07-30T05:17:58.029Z,15.44
2022-07-30T05:18:58.024Z,15.46
2022-07-30T05:19:58.025Z,15.47
2022-07-30T05:20:58.022Z,15.58
2022-07-30T05:21:58.024Z,15.62
2022-07-30T05:22:58.023Z,15.70
2022-07-30T05:23:58.018Z,15.68
2022-07-30T05:24:58.021Z,15.76
2022-07-30T05:25:58.010Z,15.86
2022-07-30T05:26:58.290Z,15.91
2022-07-30T05:27:58.009Z,15.90
2022-07-30T05:28:58.012Z,15.84
2022-07-30T05:29:58.004Z,15.97
2022-07-30T05:30:58.033Z,16.01
2022-07-30T05:32:00.829Z,15.98
2022-07-30T05:32:58.023Z,16.01
2022-07-30T05:34:02.545Z,15.95
2022-07-30T05:34:58.007Z,16.12
2022-07-30T05:35:57.991Z,16.09
2022-07-30T05:36:58.583Z,16.12
2022-07-30T05:37:57.987Z,16.15
2022-07-30T05:38:57.984Z,16.16
2022-07-30T05:40:02.670Z,16.17
2022-07-30T05:40:57.983Z,16.16
2022-07-30T05:41:57.976Z,16.20
2022-07-30T05:42:57.978Z,16.23
2022-07-30T05:43:57.975Z,16.20
2022-07-30T05:44:57.973Z,16.24
2022-07-30T05:45:58.027Z,16.28
2022-07-30T05:46:58.261Z,16.28
2022-07-30T05:47:57.966Z,16.39
2022-07-30T05:48:58.013Z,16.26
2022-07-30T05:50:01.600Z,16.38
2022-07-30T05:50:57.956Z,16.39
2022-07-30T05:51:57.962Z,16.42
2022-07-30T05:52:57.955Z,16.47
2022-07-30T05:53:57.956Z,16.56
2022-07-30T05:54:57.950Z,16.57
2022-07-30T05:55:57.951Z,16.54
2022-07-30T05:56:58.277Z,16.58
2022-07-30T05:57:57.942Z,16.61
2022-07-30T05:58:57.940Z,16.64
2022-07-30T05:59:57.939Z,16.75
2022-07-30T06:00:57.935Z,16.72
2022-07-30T06:01:58.048Z,16.78
2022-07-30T06:02:57.931Z,16.75
2022-07-30T06:03:57.931Z,16.78
2022-07-30T06:04:58.062Z,16.84
2022-07-30T06:05:57.928Z,16.89
2022-07-30T06:06:58.281Z,16.89
2022-07-30T06:07:57.924Z,17.01
2022-07-30T06:08:57.920Z,17.02
2022-07-30T06:09:57.917Z,16.97
2022-07-30T06:10:57.917Z,17.01
2022-07-30T06:11:57.915Z,16.97
2022-07-30T06:12:57.916Z,16.96
2022-07-30T06:13:57.915Z,16.97
2022-07-30T06:14:57.910Z,16.97
2022-07-30T06:15:57.949Z,17.06
2022-07-30T06:16:58.163Z,17.01
2022-07-30T06:18:01.905Z,17.06
2022-07-30T06:18:57.916Z,17.08
2022-07-30T06:19:57.906Z,17.08
2022-07-30T06:20:57.908Z,17.16
2022-07-30T06:22:05.992Z,17.05
2022-07-30T06:22:57.893Z,17.14
2022-07-30T06:23:57.904Z,17.09
2022-07-30T06:24:57.897Z,17.12
2022-07-30T06:25:57.889Z,17.14
2022-07-30T06:26:58.091Z,17.08
2022-07-30T06:27:57.895Z,17.15
2022-07-30T06:28:57.895Z,17.12
2022-07-30T06:29:57.898Z,17.12
2022-07-30T06:30:57.955Z,17.14
2022-07-30T06:31:57.879Z,17.12
2022-07-30T06:32:57.874Z,17.12
2022-07-30T06:33:57.871Z,17.06
2022-07-30T06:35:04.145Z,17.06
2022-07-30T06:35:57.871Z,17.08
2022-07-30T06:36:58.124Z,17.04
2022-07-30T06:38:05.828Z,17.09
2022-07-30T06:38:57.866Z,17.05
2022-07-30T06:39:58.734Z,17.02
2022-07-30T06:41:02.142Z,17.12
2022-07-30T06:41:57.857Z,17.11
2022-07-30T06:42:57.853Z,17.06
2022-07-30T06:43:57.859Z,17.11
2022-07-30T06:44:57.850Z,16.93
2022-07-30T06:45:57.892Z,16.94
2022-07-30T06:46:58.052Z,17.05
2022-07-30T06:47:57.845Z,17.01
2022-07-30T06:48:57.914Z,16.99
2022-07-30T06:49:57.839Z,16.97
2022-07-30T06:50:57.836Z,16.96
2022-07-30T06:51:57.836Z,16.94
2022-07-30T06:52:57.836Z,16.93
2022-07-30T06:53:57.835Z,16.93
2022-07-30T06:54:57.833Z,16.99
2022-07-30T06:55:58.385Z,16.90
2022-07-30T06:56:57.947Z,17.02
2022-07-30T06:57:57.828Z,16.96
2022-07-30T06:58:57.824Z,17.01
2022-07-30T06:59:57.836Z,17.01
2022-07-30T07:00:57.874Z,16.99
2022-07-30T07:01:57.833Z,16.96
2022-07-30T07:02:57.815Z,16.99
2022-07-30T07:03:57.874Z,16.99
2022-07-30T07:04:57.809Z,17.01
2022-07-30T07:05:57.809Z,17.01
2022-07-30T07:06:58.399Z,16.96
2022-07-30T07:07:59.501Z,17.02
2022-07-30T07:08:57.801Z,16.93
2022-07-30T07:09:57.802Z,16.94
2022-07-30T07:10:57.798Z,16.97
2022-07-30T07:11:57.800Z,16.97
2022-07-30T07:12:57.795Z,16.94
2022-07-30T07:14:01.392Z,17.04
2022-07-30T07:14:57.790Z,17.08
2022-07-30T07:15:57.790Z,17.05
2022-07-30T07:16:57.817Z,17.15
2022-07-30T07:17:57.795Z,17.08
2022-07-30T07:18:57.789Z,17.12
2022-07-30T07:19:59.793Z,17.16
2022-07-30T07:20:57.780Z,17.15
2022-07-30T07:21:57.780Z,17.22
2022-07-30T07:22:57.774Z,17.19
2022-07-30T07:23:57.774Z,17.20
2022-07-30T07:24:57.774Z,17.23
2022-07-30T07:25:57.776Z,17.16
2022-07-30T07:26:58.084Z,17.12
2022-07-30T07:28:12.505Z,17.15
2022-07-30T07:29:00.213Z,17.12
2022-07-30T07:30:01.827Z,17.12
2022-07-30T07:30:57.784Z,17.23
2022-07-30T07:32:06.033Z,17.24
2022-07-30T07:32:57.757Z,17.23
2022-07-30T07:33:57.757Z,17.16
2022-07-30T07:34:58.008Z,17.12
2022-07-30T07:35:57.752Z,17.19
2022-07-30T07:36:58.068Z,17.11
2022-07-30T07:37:57.747Z,17.04
2022-07-30T07:38:57.747Z,17.14
2022-07-30T07:39:57.745Z,17.05
2022-07-30T07:40:57.744Z,17.12
2022-07-30T07:41:57.740Z,17.04
2022-07-30T07:42:57.740Z,17.14
2022-07-30T07:43:57.742Z,17.20
2022-07-30T07:44:57.738Z,17.34
2022-07-30T07:45:57.801Z,17.34
2022-07-30T07:46:57.941Z,17.36
2022-07-30T07:47:57.733Z,17.41
2022-07-30T07:48:57.776Z,17.38
2022-07-30T07:49:57.730Z,17.51
2022-07-30T07:51:00.285Z,17.52
2022-07-30T07:51:57.723Z,17.49
2022-07-30T07:52:57.735Z,17.56
2022-07-30T07:54:19.884Z,17.64
2022-07-30T07:54:57.717Z,17.68
2022-07-30T07:55:57.714Z,17.76
2022-07-30T07:56:57.800Z,17.74
2022-07-30T07:57:57.711Z,17.85
2022-07-30T07:58:57.714Z,17.83
2022-07-30T07:59:57.709Z,17.85
2022-07-30T08:00:57.782Z,17.97
2022-07-30T08:01:57.740Z,18.00
2022-07-30T08:02:57.712Z,17.97
2022-07-30T08:03:57.707Z,17.95
2022-07-30T08:04:57.703Z,17.98
2022-07-30T08:06:05.844Z,18.03
2022-07-30T08:06:57.728Z,18.11
2022-07-30T08:07:57.696Z,18.18
2022-07-30T08:08:57.696Z,18.29
2022-07-30T08:09:57.695Z,18.28
2022-07-30T08:10:57.692Z,18.35
2022-07-30T08:11:57.690Z,18.34
2022-07-30T08:12:57.694Z,18.43
2022-07-30T08:13:57.691Z,18.45
2022-07-30T08:14:57.690Z,18.47
2022-07-30T08:15:57.686Z,18.50
2022-07-30T08:16:57.731Z,18.52
2022-07-30T08:17:57.684Z,18.56
2022-07-30T08:18:57.683Z,18.70
2022-07-30T08:19:57.681Z,18.75
2022-07-30T08:20:57.683Z,18.77
2022-07-30T08:21:57.680Z,18.80
2022-07-30T08:22:57.681Z,18.89
2022-07-30T08:23:57.680Z,18.96
2022-07-30T08:24:57.685Z,19.00
2022-07-30T08:25:57.696Z,19.07
2022-07-30T08:26:57.689Z,19.11
2022-07-30T08:27:57.686Z,19.27
2022-07-30T08:28:57.683Z,19.33
2022-07-30T08:29:57.675Z,19.37
2022-07-30T08:31:00.537Z,19.40
2022-07-30T08:31:57.684Z,19.51
2022-07-30T08:32:57.678Z,19.56
2022-07-30T08:33:57.678Z,19.56
2022-07-30T08:34:57.932Z,19.73
2022-07-30T08:35:59.263Z,19.77
2022-07-30T08:36:57.677Z,19.73
2022-07-30T08:37:57.684Z,19.77
2022-07-30T08:38:57.682Z,19.82
2022-07-30T08:39:57.684Z,19.89
2022-07-30T08:40:57.687Z,19.96
2022-07-30T08:41:57.683Z,20.09
2022-07-30T08:42:57.690Z,20.19
2022-07-30T08:43:57.686Z,20.25
2022-07-30T08:44:57.691Z,20.43
2022-07-30T08:45:57.689Z,20.39
2022-07-30T08:46:57.693Z,20.55
2022-07-30T08:47:57.693Z,20.63
2022-07-30T08:48:57.696Z,20.66
2022-07-30T08:49:57.697Z,20.90
2022-07-30T08:50:57.702Z,20.92
2022-07-30T08:51:57.701Z,20.92
2022-07-30T08:52:57.712Z,20.74
2022-07-30T08:53:57.715Z,20.74
2022-07-30T08:54:57.709Z,20.50
2022-07-30T08:55:58.788Z,20.66
2022-07-30T08:56:57.713Z,20.70
2022-07-30T08:57:57.714Z,20.75
2022-07-30T08:58:57.726Z,20.88
2022-07-30T09:00:00.572Z,20.93
2022-07-30T09:00:57.783Z,20.93
2022-07-30T09:01:57.722Z,20.92
2022-07-30T09:02:57.720Z,21.00
2022-07-30T09:03:57.827Z,21.00
2022-07-30T09:04:57.728Z,20.97
2022-07-30T09:05:57.735Z,21.02
2022-07-30T09:06:57.728Z,20.99
2022-07-30T09:07:57.726Z,21.12
2022-07-30T09:08:57.729Z,21.06
2022-07-30T09:09:57.783Z,20.99
2022-07-30T09:10:57.729Z,20.87
2022-07-30T09:11:57.727Z,20.77
2022-07-30T09:12:57.730Z,20.70
2022-07-30T09:13:57.733Z,20.75
2022-07-30T09:14:57.732Z,20.74
2022-07-30T09:15:57.729Z,20.74
2022-07-30T09:16:57.730Z,20.62
2022-07-30T09:17:57.734Z,20.84
2022-07-30T09:18:57.733Z,20.95
2022-07-30T09:19:57.727Z,20.92
2022-07-30T09:20:57.731Z,20.75
2022-07-30T09:21:57.727Z,20.74
2022-07-30T09:22:57.735Z,20.70
2022-07-30T09:23:57.732Z,20.65
2022-07-30T09:24:57.734Z,20.52
2022-07-30T09:25:57.730Z,20.47
2022-07-30T09:26:57.728Z,20.55
2022-07-30T09:27:57.732Z,20.47
2022-07-30T09:28:57.729Z,20.39
2022-07-30T09:29:57.729Z,20.39
2022-07-30T09:30:57.736Z,20.34
2022-07-30T09:31:57.730Z,20.29
2022-07-30T09:32:57.734Z,20.36
2022-07-30T09:33:57.729Z,20.28
2022-07-30T09:34:57.929Z,20.29
2022-07-30T09:35:57.742Z,20.26
2022-07-30T09:36:57.730Z,20.34
2022-07-30T09:37:57.728Z,20.36
2022-07-30T09:38:57.729Z,20.39
2022-07-30T09:39:59.265Z,20.39
2022-07-30T09:40:58.190Z,20.37
2022-07-30T09:41:57.745Z,20.40
2022-07-30T09:42:57.735Z,20.36
2022-07-30T09:43:57.725Z,20.43
2022-07-30T09:44:57.730Z,20.37
2022-07-30T09:45:57.986Z,20.43
2022-07-30T09:46:57.792Z,20.32
2022-07-30T09:47:57.736Z,20.25
2022-07-30T09:48:57.781Z,20.19
2022-07-30T09:49:57.730Z,20.13
2022-07-30T09:50:57.871Z,20.16
2022-07-30T09:51:57.943Z,20.04
2022-07-30T09:52:57.729Z,19.99
2022-07-30T09:53:57.805Z,20.03
2022-07-30T09:54:57.785Z,19.96
2022-07-30T09:55:57.724Z,20.00
2022-07-30T09:56:57.724Z,20.06
2022-07-30T09:57:58.856Z,20.07
2022-07-30T09:58:57.756Z,20.11
2022-07-30T09:59:57.726Z,20.16
2022-07-30T10:00:57.733Z,20.22
2022-07-30T10:02:01.125Z,20.18
2022-07-30T10:02:57.722Z,20.25
2022-07-30T10:03:57.719Z,20.25
2022-07-30T10:04:57.824Z,20.31
2022-07-30T10:05:57.719Z,20.31
2022-07-30T10:06:57.734Z,20.29
2022-07-30T10:07:57.716Z,20.36
2022-07-30T10:08:57.719Z,20.39
2022-07-30T10:09:57.717Z,20.32
2022-07-30T10:10:57.717Z,20.40
2022-07-30T10:11:57.728Z,20.36
2022-07-30T10:12:57.715Z,20.39
2022-07-30T10:13:57.814Z,20.34
2022-07-30T10:14:57.715Z,20.40
2022-07-30T10:15:57.719Z,20.47
2022-07-30T10:16:57.717Z,20.55
2022-07-30T10:17:57.715Z,20.60
2022-07-30T10:18:57.744Z,20.56
2022-07-30T10:19:57.710Z,20.47
2022-07-30T10:20:57.711Z,20.52
2022-07-30T10:21:57.710Z,20.55
2022-07-30T10:22:57.709Z,20.55
2022-07-30T10:23:57.770Z,20.52
2022-07-30T10:24:57.717Z,20.51
2022-07-30T10:25:57.735Z,20.44
2022-07-30T10:26:57.708Z,20.41
2022-07-30T10:27:58.314Z,20.26
2022-07-30T10:28:57.707Z,20.34
2022-07-30T10:29:57.707Z,20.25
2022-07-30T10:30:57.732Z,20.37
2022-07-30T10:31:57.750Z,20.37
2022-07-30T10:32:57.740Z,20.31
2022-07-30T10:33:57.706Z,20.29
2022-07-30T10:34:58.091Z,20.34
2022-07-30T10:35:57.705Z,20.37
2022-07-30T10:36:57.716Z,20.39
2022-07-30T10:37:57.701Z,20.43
2022-07-30T10:38:57.704Z,20.47
2022-07-30T10:39:57.700Z,20.52
2022-07-30T10:40:57.712Z,20.65
2022-07-30T10:41:57.705Z,20.60
2022-07-30T10:42:57.699Z,20.59
2022-07-30T10:43:57.698Z,20.70
2022-07-30T10:44:57.704Z,20.70
2022-07-30T10:45:57.701Z,20.78
2022-07-30T10:46:57.697Z,20.75
2022-07-30T10:47:57.697Z,20.74
2022-07-30T10:48:57.741Z,20.70
2022-07-30T10:49:57.697Z,20.74
2022-07-30T10:50:57.702Z,20.74
2022-07-30T10:51:57.745Z,20.72
2022-07-30T10:52:57.694Z,20.70
2022-07-30T10:53:57.692Z,20.67
2022-07-30T10:54:57.693Z,20.69
2022-07-30T10:55:57.690Z,20.77
2022-07-30T10:56:57.693Z,20.78
2022-07-30T10:57:57.690Z,20.75
2022-07-30T10:58:57.691Z,20.81
2022-07-30T10:59:57.690Z,20.84
2022-07-30T11:00:57.689Z,20.82
2022-07-30T11:01:57.690Z,20.87
2022-07-30T11:02:57.691Z,20.82
2022-07-30T11:03:57.686Z,20.90
2022-07-30T11:04:57.688Z,20.95
2022-07-30T11:05:57.689Z,20.96
2022-07-30T11:06:57.690Z,20.88
2022-07-30T11:07:57.683Z,20.96
2022-07-30T11:08:58.333Z,21.09
2022-07-30T11:10:05.959Z,21.22
2022-07-30T11:10:57.687Z,21.18
2022-07-30T11:12:01.920Z,21.21
2022-07-30T11:12:57.682Z,21.18
2022-07-30T11:13:57.685Z,21.22
2022-07-30T11:14:57.683Z,21.22
2022-07-30T11:15:57.688Z,21.18
2022-07-30T11:16:57.685Z,21.18
2022-07-30T11:17:57.683Z,21.18
2022-07-30T11:19:27.473Z,21.18
2022-07-30T11:19:57.921Z,21.14
2022-07-30T11:20:57.689Z,21.00
2022-07-30T11:21:57.680Z,21.06
2022-07-30T11:22:57.680Z,21.05
2022-07-30T11:23:57.675Z,21.11
2022-07-30T11:24:57.676Z,21.14
2022-07-30T11:25:57.675Z,21.14
2022-07-30T11:26:57.681Z,21.18
2022-07-30T11:27:57.680Z,21.17
2022-07-30T11:28:57.683Z,21.12
2022-07-30T11:29:57.675Z,21.21
2022-07-30T11:30:57.679Z,21.15
2022-07-30T11:31:58.835Z,21.24
2022-07-30T11:32:57.674Z,21.22
2022-07-30T11:33:57.743Z,21.17
2022-07-30T11:34:57.672Z,21.17
2022-07-30T11:35:57.672Z,21.22
2022-07-30T11:36:57.669Z,21.21
2022-07-30T11:37:57.670Z,21.36
2022-07-30T11:39:05.210Z,21.42
2022-07-30T11:39:57.669Z,21.43
2022-07-30T11:40:57.668Z,21.48
2022-07-30T11:41:57.665Z,21.48
2022-07-30T11:42:57.671Z,21.52
2022-07-30T11:43:57.664Z,21.58
2022-07-30T11:45:02.243Z,21.61
2022-07-30T11:45:57.666Z,21.46
2022-07-30T11:46:57.665Z,21.48
2022-07-30T11:47:57.669Z,21.58
2022-07-30T11:48:57.750Z,21.52
2022-07-30T11:49:57.674Z,21.62
2022-07-30T11:51:00.816Z,21.62
2022-07-30T11:51:57.667Z,21.55
2022-07-30T11:52:57.671Z,21.51
2022-07-30T11:53:57.664Z,21.46
2022-07-30T11:54:57.665Z,21.42
2022-07-30T11:55:57.659Z,21.40
2022-07-30T11:57:02.144Z,21.45
2022-07-30T11:57:57.680Z,21.42
2022-07-30T11:58:57.671Z,21.50
2022-07-30T11:59:57.671Z,21.67
2022-07-30T12:00:57.662Z,21.72
2022-07-30T12:01:57.659Z,21.91
2022-07-30T12:02:59.875Z,21.96
2022-07-30T12:03:57.665Z,21.93
2022-07-30T12:04:57.658Z,21.88
2022-07-30T12:05:57.658Z,21.95
2022-07-30T12:06:57.659Z,21.88
2022-07-30T12:07:57.653Z,21.82
2022-07-30T12:08:58.863Z,21.91
2022-07-30T12:09:57.656Z,21.91
2022-07-30T12:10:57.657Z,21.83
2022-07-30T12:11:57.664Z,21.76
2022-07-30T12:12:57.654Z,21.77
2022-07-30T12:13:57.655Z,21.73
2022-07-30T12:15:01.762Z,21.66
2022-07-30T12:15:57.652Z,21.64
2022-07-30T12:16:57.653Z,21.61
2022-07-30T12:18:17.561Z,21.55
2022-07-30T12:18:57.649Z,21.62
2022-07-30T12:19:57.651Z,21.62
2022-07-30T12:20:59.431Z,21.72
2022-07-30T12:21:57.650Z,21.73
2022-07-30T12:22:57.658Z,21.75
2022-07-30T12:23:57.656Z,21.80
2022-07-30T12:24:57.656Z,21.79
2022-07-30T12:25:58.086Z,21.75
2022-07-30T12:26:57.651Z,21.73
2022-07-30T12:27:57.657Z,21.79
2022-07-30T12:28:57.648Z,21.99
2022-07-30T12:29:57.652Z,22.07
2022-07-30T12:30:57.650Z,22.14
2022-07-30T12:31:57.651Z,22.18
2022-07-30T12:32:57.646Z,22.25
2022-07-30T12:33:59.012Z,22.47
2022-07-30T12:34:57.850Z,22.60
2022-07-30T12:35:57.648Z,22.60
2022-07-30T12:36:57.643Z,22.59
2022-07-30T12:37:57.650Z,22.57
2022-07-30T12:38:57.644Z,22.55
2022-07-30T12:39:57.648Z,22.60
2022-07-30T12:40:57.643Z,22.65
2022-07-30T12:41:57.643Z,22.62
2022-07-30T12:42:57.644Z,22.66
2022-07-30T12:43:57.648Z,22.55
2022-07-30T12:44:57.644Z,22.55
2022-07-30T12:45:57.647Z,22.60
2022-07-30T12:46:57.642Z,22.66
2022-07-30T12:47:57.646Z,22.69
2022-07-30T12:48:57.765Z,22.66
2022-07-30T12:49:57.769Z,22.66
2022-07-30T12:50:57.652Z,22.54
2022-07-30T12:52:00.413Z,22.53
2022-07-30T12:52:57.643Z,22.54
2022-07-30T12:53:57.641Z,22.59
2022-07-30T12:54:57.646Z,22.60
2022-07-30T12:55:57.644Z,22.65
2022-07-30T12:56:57.647Z,22.57
2022-07-30T12:57:57.724Z,22.54